Time;durP1;ratioP1;P1;durP2;ratioP2;P2;SDS_P1;SDS_P2;PMS_P1;PMS_P2;Temp;Humidity;BMP_temperature;BMP_pressure;BME280_temperature;BME280_humidity;BME280_pressure;Samples;Min_cycle;Max_cycle;Signal;HPM_P1;HPM_P2
2022/06/06 00:01:17;;;;;;;12.07;10.17;;;17.70;99.90;;;;;;4997096;28;20550;-52
2022/06/06 00:03:43;;;;;;;11.30;10.00;;;17.70;99.90;;;;;;4993654;28;20424;-52
2022/06/06 00:06:12;;;;;;;13.10;11.07;;;17.60;99.90;;;;;;5002399;28;20419;-52
2022/06/06 00:08:39;;;;;;;12.90;10.40;;;17.60;99.90;;;;;;4998462;28;20435;-52
2022/06/06 00:11:08;;;;;;;13.87;11.37;;;17.60;99.90;;;;;;5000004;28;20454;-53
2022/06/06 00:13:34;;;;;;;12.30;10.40;;;17.50;99.90;;;;;;4999338;28;20772;-52
2022/06/06 00:16:00;;;;;;;11.70;10.50;;;17.40;99.90;;;;;;4997907;28;20800;-52
2022/06/06 00:18:25;;;;;;;14.20;11.43;;;17.40;99.90;;;;;;4997897;28;20191;-53
2022/06/06 00:20:52;;;;;;;11.97;10.67;;;17.30;99.90;;;;;;4998489;28;20653;-53
2022/06/06 00:23:17;;;;;;;15.07;11.60;;;17.20;99.90;;;;;;5003713;28;20192;-53
2022/06/06 00:25:43;;;;;;;18.77;13.00;;;17.10;99.90;;;;;;4992839;28;20465;-53
2022/06/06 00:28:08;;;;;;;22.43;12.70;;;17.10;1.00;;;;;;4998678;28;20230;-52
2022/06/06 00:30:34;;;;;;;20.73;13.43;;;17.10;1.00;;;;;;5000159;28;20188;-52
2022/06/06 00:35:44;;;;;;;20.63;14.17;;;17.00;1.00;;;;;;5001056;28;20233;-53
2022/06/06 00:38:09;;;;;;;17.53;13.47;;;16.90;2.20;;;;;;4994786;28;20466;-53
2022/06/06 00:40:35;;;;;;;20.90;13.63;;;16.90;64.90;;;;;;4995626;28;20567;-53
2022/06/06 00:43:03;;;;;;;17.43;13.10;;;16.80;99.90;;;;;;5003828;28;20195;-53
2022/06/06 00:45:34;;;;;;;19.60;14.17;;;16.80;99.90;;;;;;5000055;28;20180;-54
2022/06/06 00:48:06;;;;;;;20.33;13.77;;;16.70;1.00;;;;;;5002984;28;20451;-54
2022/06/06 00:50:39;;;;;;;19.43;14.70;;;16.60;1.00;;;;;;4997109;28;20444;-53
2022/06/06 00:53:06;;;;;;;19.03;14.37;;;16.60;1.00;;;;;;4997483;28;21075;-53
2022/06/06 00:55:38;;;;;;;15.93;14.27;;;16.60;6.30;;;;;;5001379;28;20925;-53
2022/06/06 00:58:09;;;;;;;18.93;15.20;;;16.50;1.00;;;;;;4995337;28;20415;-54
2022/06/06 01:00:37;;;;;;;27.37;16.33;;;16.50;1.00;;;;;;4995874;28;20504;-54
2022/06/06 01:03:05;;;;;;;18.83;15.50;;;16.50;1.00;;;;;;5005519;28;20950;-54
2022/06/06 01:05:32;;;;;;;21.00;17.33;;;16.40;1.00;;;;;;4994368;28;21004;-54
2022/06/06 01:07:57;;;;;;;21.00;16.57;;;16.30;1.00;;;;;;5003253;28;20434;-54
2022/06/06 01:10:23;;;;;;;18.47;16.13;;;16.30;1.00;;;;;;4997364;28;20407;-57
2022/06/06 01:12:52;;;;;;;21.80;16.67;;;16.30;99.90;;;;;;5003128;28;20278;-54
2022/06/06 01:15:20;;;;;;;19.53;16.40;;;16.40;99.90;;;;;;4986879;28;20665;-53
2022/06/06 01:18:08;;;;;;;20.90;16.60;;;16.40;99.90;;;;;;5003284;28;20485;-53
2022/06/06 01:21:17;;;;;;;22.90;17.53;;;16.40;99.90;;;;;;4992208;28;21076;-53
2022/06/06 01:23:57;;;;;;;22.67;17.87;;;16.50;99.90;;;;;;4992267;28;20912;-53
2022/06/06 01:26:35;;;;;;;21.23;17.80;;;16.40;99.90;;;;;;4998523;28;20875;-53
2022/06/06 01:29:36;;;;;;;23.17;17.80;;;16.40;99.90;;;;;;4999833;28;20454;-54
2022/06/06 01:32:07;;;;;;;23.20;19.40;;;16.40;99.90;;;;;;4950380;28;20450;-54
2022/06/06 01:34:36;;;;;;;20.57;17.43;;;16.40;99.90;;;;;;5004493;28;20418;-54
2022/06/06 01:37:03;;;;;;;20.23;17.50;;;16.40;99.90;;;;;;4985600;28;20426;-54
2022/06/06 01:39:31;;;;;;;22.50;18.83;;;16.40;99.90;;;;;;5004471;28;21019;-54
2022/06/06 01:42:18;;;;;;;21.00;18.60;;;16.30;99.90;;;;;;4995279;28;20553;-53
2022/06/06 01:44:54;;;;;;;23.23;19.13;;;16.40;99.90;;;;;;4995476;28;20864;-53
2022/06/06 01:47:38;;;;;;;26.33;19.47;;;16.40;99.90;;;;;;4992846;28;20470;-54
2022/06/06 01:50:05;;;;;;;24.50;19.07;;;16.40;99.90;;;;;;4997633;28;20474;-54
2022/06/06 01:52:47;;;;;;;20.87;18.77;;;16.40;99.90;;;;;;4992227;28;20479;-55
2022/06/06 01:55:13;;;;;;;19.53;17.50;;;16.40;99.90;;;;;;5002610;28;20822;-54
2022/06/06 01:57:39;;;;;;;23.43;19.80;;;16.30;99.90;;;;;;4999910;28;20422;-53
2022/06/06 02:00:05;;;;;;;23.93;20.70;;;16.40;99.90;;;;;;5003312;28;20196;-53
2022/06/06 02:02:31;;;;;;;25.03;20.77;;;16.40;99.90;;;;;;5001483;28;20298;-58
2022/06/06 02:04:57;;;;;;;24.00;20.83;;;16.40;99.90;;;;;;4998720;28;20514;-54
2022/06/06 02:07:22;;;;;;;23.53;20.10;;;16.40;99.90;;;;;;5004363;28;20302;-53
2022/06/06 02:09:48;;;;;;;23.23;19.30;;;16.40;99.90;;;;;;4998356;28;20192;-54
2022/06/06 02:12:13;;;;;;;23.97;21.33;;;16.40;99.90;;;;;;5001965;28;20655;-54
2022/06/06 02:14:39;;;;;;;28.27;22.70;;;16.40;99.90;;;;;;4998125;28;20188;-53
2022/06/06 02:17:06;;;;;;;28.90;22.60;;;16.50;99.90;;;;;;5003420;28;20180;-54
2022/06/06 02:19:32;;;;;;;27.30;22.77;;;16.50;99.90;;;;;;5006408;28;20183;-54
2022/06/06 02:21:57;;;;;;;27.63;22.77;;;16.60;99.90;;;;;;5000944;28;20489;-54
2022/06/06 02:24:23;;;;;;;26.53;22.37;;;16.60;99.90;;;;;;4999882;28;21168;-54
2022/06/06 02:26:49;;;;;;;27.73;23.47;;;16.70;99.90;;;;;;5007270;28;20274;-53
2022/06/06 02:29:14;;;;;;;25.43;22.00;;;16.90;99.90;;;;;;4997267;28;20790;-54
2022/06/06 02:31:40;;;;;;;25.03;20.57;;;16.90;99.90;;;;;;4993988;28;20200;-53
2022/06/06 02:34:07;;;;;;;24.80;21.17;;;17.00;99.90;;;;;;5002195;28;20653;-54
2022/06/06 02:36:33;;;;;;;16.73;15.00;;;17.00;99.90;;;;;;4996075;28;20563;-54
2022/06/06 02:38:59;;;;;;;15.83;14.13;;;17.10;99.90;;;;;;4996937;28;20526;-53
2022/06/06 02:41:26;;;;;;;16.47;13.10;;;17.00;99.90;;;;;;4998079;28;20558;-54
2022/06/06 02:43:52;;;;;;;13.73;12.20;;;17.00;99.90;;;;;;5000495;28;20191;-54
2022/06/06 02:46:18;;;;;;;12.57;11.23;;;17.10;99.90;;;;;;4999335;28;20447;-54
2022/06/06 02:48:44;;;;;;;12.20;11.03;;;17.10;99.90;;;;;;5000347;28;20446;-54
2022/06/06 02:51:10;;;;;;;12.87;10.03;;;17.10;99.90;;;;;;4995388;28;20198;-54
2022/06/06 02:53:36;;;;;;;10.73;9.63;;;17.10;99.90;;;;;;5006851;28;20254;-54
2022/06/06 02:56:02;;;;;;;11.80;10.60;;;17.10;99.90;;;;;;4999072;28;20202;-54
2022/06/06 02:58:28;;;;;;;11.50;9.87;;;17.00;99.90;;;;;;5003622;28;20447;-54
2022/06/06 03:01:04;;;;;;;12.07;10.10;;;17.10;99.90;;;;;;4992588;28;20557;-54
2022/06/06 03:03:31;;;;;;;11.53;9.33;;;17.00;99.90;;;;;;4998539;28;20450;-54
2022/06/06 03:06:05;;;;;;;10.90;9.60;;;17.00;99.90;;;;;;5000939;28;20427;-54
2022/06/06 03:08:58;;;;;;;9.87;8.87;;;17.00;99.90;;;;;;5003220;28;20810;-53
2022/06/06 03:11:48;;;;;;;11.07;9.97;;;17.00;99.90;;;;;;4996194;28;20450;-54
2022/06/06 03:14:46;;;;;;;10.67;9.57;;;17.00;99.90;;;;;;5004965;28;20543;-54
2022/06/06 03:20:47;;;;;;;10.57;9.57;;;16.90;99.90;;;;;;4988764;28;20685;-54
2022/06/06 03:23:34;;;;;;;12.70;11.23;;;17.00;99.90;;;;;;5004373;28;20446;-54
2022/06/06 03:26:33;;;;;;;11.57;10.40;;;16.90;99.90;;;;;;5003515;28;20422;-54
2022/06/06 03:29:26;;;;;;;12.20;10.40;;;16.90;99.90;;;;;;4990865;28;20538;-53
2022/06/06 03:32:10;;;;;;;13.10;11.50;;;16.90;99.90;;;;;;4995886;28;20502;-55
2022/06/06 03:35:00;;;;;;;15.90;11.67;;;16.90;99.90;;;;;;4997259;28;20656;-54
2022/06/06 03:37:37;;;;;;;13.20;11.63;;;16.90;99.90;;;;;;4997119;28;20842;-53
2022/06/06 03:40:23;;;;;;;12.80;11.33;;;16.80;99.90;;;;;;5000852;28;20463;-54
2022/06/06 03:43:14;;;;;;;14.70;11.47;;;16.70;99.90;;;;;;4990126;28;20853;-53
2022/06/06 03:45:48;;;;;;;13.53;11.37;;;16.80;99.90;;;;;;4987698;28;20467;-54
2022/06/06 03:48:33;;;;;;;12.83;11.20;;;16.80;99.90;;;;;;4991906;28;21453;-54
2022/06/06 03:51:17;;;;;;;12.80;10.97;;;16.90;99.90;;;;;;4994936;28;20473;-54
2022/06/06 03:54:16;;;;;;;12.77;11.10;;;16.80;99.90;;;;;;4994639;28;20469;-53
2022/06/06 03:56:49;;;;;;;13.20;10.33;;;16.80;99.90;;;;;;4997427;28;20454;-53
2022/06/06 03:59:19;;;;;;;12.63;11.30;;;16.80;99.90;;;;;;4993374;28;20470;-53
2022/06/06 04:01:46;;;;;;;15.63;11.87;;;16.80;99.90;;;;;;4997035;28;20591;-54
2022/06/06 04:04:14;;;;;;;17.80;10.23;;;16.70;99.90;;;;;;4997473;28;20890;-53
2022/06/06 04:06:40;;;;;;;11.40;10.00;;;16.80;99.90;;;;;;4996411;28;20967;-53
2022/06/06 04:09:05;;;;;;;12.53;9.60;;;16.80;99.90;;;;;;4996677;28;20443;-54
2022/06/06 04:11:49;;;;;;;12.10;9.90;;;16.70;99.90;;;;;;4994918;28;20461;-53
2022/06/06 04:14:27;;;;;;;11.40;10.20;;;16.70;99.90;;;;;;4998938;28;20207;-54
2022/06/06 04:17:26;;;;;;;13.40;10.43;;;16.70;99.90;;;;;;4998629;28;20454;-53
2022/06/06 04:20:13;;;;;;;11.30;9.73;;;16.60;99.90;;;;;;4994546;28;20508;-53
2022/06/06 04:23:16;;;;;;;12.43;9.40;;;16.60;99.90;;;;;;4998063;28;20478;-53
2022/06/06 04:26:19;;;;;;;10.63;9.33;;;16.60;99.90;;;;;;4987580;28;20450;-53
2022/06/06 04:29:03;;;;;;;10.00;9.00;;;16.50;99.90;;;;;;4992592;28;20476;-53
2022/06/06 04:31:57;;;;;;;13.13;10.70;;;16.60;99.90;;;;;;4999085;28;20450;-53
2022/06/06 04:34:55;;;;;;;10.10;9.10;;;16.50;99.30;;;;;;4997445;28;20419;-53
2022/06/06 04:37:48;;;;;;;15.33;8.93;;;16.50;93.20;;;;;;4996718;28;20446;-53
2022/06/06 04:40:37;;;;;;;9.40;8.47;;;16.60;1.00;;;;;;5002172;28;20573;-53
2022/06/06 04:43:13;;;;;;;11.87;7.93;;;16.70;99.90;;;;;;5003667;28;20481;-54
2022/06/06 04:46:03;;;;;;;9.27;8.17;;;16.70;90.80;;;;;;4992237;28;20447;-53
2022/06/06 04:48:30;;;;;;;9.97;7.00;;;16.80;1.00;;;;;;4999112;28;20443;-53
2022/06/06 04:50:57;;;;;;;8.40;7.50;;;16.80;47.30;;;;;;4997418;28;20466;-53
2022/06/06 04:53:25;;;;;;;8.43;7.63;;;16.80;99.90;;;;;;4997086;28;20438;-53
2022/06/06 04:55:53;;;;;;;9.00;7.93;;;16.80;1.00;;;;;;4998357;28;20424;-53
2022/06/06 04:58:20;;;;;;;9.57;7.40;;;16.80;99.90;;;;;;5002503;28;20766;-53
2022/06/06 05:00:46;;;;;;;8.03;6.97;;;16.70;76.90;;;;;;4998619;28;20481;-53
2022/06/06 05:03:13;;;;;;;7.80;7.00;;;16.80;1.00;;;;;;4994669;28;20437;-53
2022/06/06 05:06:06;;;;;;;9.27;7.47;;;16.80;1.00;;;;;;5003065;28;20465;-53
2022/06/06 05:08:32;;;;;;;9.17;7.50;;;16.80;1.00;;;;;;4993501;28;20974;-53
2022/06/06 05:11:06;;;;;;;9.30;7.90;;;16.80;99.90;;;;;;4993536;28;20454;-53
2022/06/06 05:13:38;;;;;;;8.80;7.23;;;16.80;99.90;;;;;;4997648;28;20214;-53
2022/06/06 05:16:41;;;;;;;9.77;7.60;;;16.80;99.90;;;;;;4995482;28;20453;-53
2022/06/06 05:19:28;;;;;;;9.40;7.90;;;16.80;97.70;;;;;;4995174;28;20491;-53
2022/06/06 05:22:32;;;;;;;11.97;8.77;;;16.80;46.00;;;;;;4991761;28;20495;-53
2022/06/06 05:25:20;;;;;;;11.90;9.77;;;16.80;21.50;;;;;;4952823;28;20542;-53
2022/06/06 05:28:16;;;;;;;12.77;10.00;;;16.80;1.00;;;;;;4948881;28;20460;-53
2022/06/06 05:31:00;;;;;;;11.87;9.50;;;16.90;1.00;;;;;;4982295;28;20929;-53
2022/06/06 05:33:36;;;;;;;12.47;9.67;;;16.90;1.00;;;;;;4997762;28;20449;-53
2022/06/06 05:36:19;;;;;;;14.10;10.20;;;16.90;1.00;;;;;;4995849;28;20923;-54
2022/06/06 05:39:12;;;;;;;17.70;10.60;;;16.90;1.00;;;;;;4993056;28;20458;-53
2022/06/06 05:42:02;;;;;;;16.23;10.73;;;16.90;1.00;;;;;;5001255;28;20829;-53
2022/06/06 05:44:42;;;;;;;13.93;11.10;;;16.80;1.00;;;;;;4996077;28;20447;-54
2022/06/06 05:47:16;;;;;;;13.70;10.70;;;16.80;1.00;;;;;;4986145;28;20596;-53
2022/06/06 05:49:51;;;;;;;14.67;11.03;;;16.90;1.00;;;;;;4994752;28;20526;-53
2022/06/06 05:52:32;;;;;;;19.43;12.20;;;17.00;1.00;;;;;;4990795;28;20481;-53
2022/06/06 05:55:16;;;;;;;16.67;12.13;;;17.00;1.00;;;;;;5001060;28;20477;-53
2022/06/06 05:57:49;;;;;;;19.80;12.40;;;17.00;1.00;;;;;;4995640;28;20450;-53
2022/06/06 06:00:34;;;;;;;19.77;13.47;;;16.90;1.00;;;;;;4997707;28;20498;-53
2022/06/06 06:03:39;;;;;;;18.70;12.67;;;16.90;1.00;;;;;;4999012;28;20529;-53
2022/06/06 06:06:11;;;;;;;21.53;13.53;;;17.00;1.00;;;;;;4999226;28;20445;-53
2022/06/06 06:09:03;;;;;;;22.93;14.37;;;17.10;1.00;;;;;;4997201;28;20505;-53
2022/06/06 06:12:03;;;;;;;25.17;15.93;;;17.20;1.00;;;;;;5014291;28;20459;-53
2022/06/06 06:15:07;;;;;;;22.93;14.20;;;17.30;1.00;;;;;;4994914;28;20454;-53
2022/06/06 06:17:34;;;;;;;27.43;14.70;;;17.50;99.90;;;;;;4980438;28;20505;-53
2022/06/06 06:20:11;;;;;;;30.87;15.50;;;17.50;99.90;;;;;;4995985;28;20462;-53
2022/06/06 06:22:45;;;;;;;20.93;14.10;;;17.60;99.90;;;;;;4993631;28;20486;-54
2022/06/06 06:25:11;;;;;;;26.77;15.57;;;17.60;99.90;;;;;;4992351;28;20461;-52
2022/06/06 06:27:37;;;;;;;26.07;14.93;;;17.70;99.90;;;;;;4997696;28;20472;-53
2022/06/06 06:30:07;;;;;;;28.30;17.53;;;17.80;99.90;;;;;;5004587;28;20427;-53
2022/06/06 06:32:36;;;;;;;30.13;20.40;;;17.80;99.90;;;;;;5000965;28;20696;-53
2022/06/06 06:35:21;;;;;;;32.07;20.13;;;17.80;99.90;;;;;;5004619;28;20510;-54
2022/06/06 06:38:11;;;;;;;33.13;19.33;;;17.70;62.20;;;;;;4996998;28;20526;-53
2022/06/06 06:41:01;;;;;;;35.13;20.03;;;17.70;37.20;;;;;;4997159;28;20928;-53
2022/06/06 06:44:04;;;;;;;33.77;19.77;;;17.50;70.60;;;;;;5007173;28;20457;-53
2022/06/06 06:46:45;;;;;;;32.47;19.27;;;17.20;99.90;;;;;;4994854;28;20449;-53
2022/06/06 06:49:40;;;;;;;37.90;20.00;;;17.20;99.90;;;;;;5000177;28;20439;-53
2022/06/06 06:52:43;;;;;;;32.00;18.67;;;17.20;99.90;;;;;;4995305;28;20492;-53
2022/06/06 06:55:27;;;;;;;30.43;17.53;;;17.30;99.90;;;;;;4994474;28;21338;-53
2022/06/06 06:57:58;;;;;;;29.47;16.20;;;17.40;97.80;;;;;;4997576;28;20427;-53
2022/06/06 07:00:25;;;;;;;29.10;16.00;;;17.40;5.90;;;;;;4998584;28;20430;-52
2022/06/06 07:09:09;;;;;;;23.63;14.70;;;17.70;1.00;;;;;;4996699;28;20473;-53
2022/06/06 07:11:48;;;;;;;26.57;13.97;;;17.70;1.00;;;;;;4988882;28;20447;-52
2022/06/06 07:14:48;;;;;;;21.13;12.30;;;17.70;1.00;;;;;;4992852;28;20443;-53
2022/06/06 07:17:15;;;;;;;20.03;13.03;;;17.80;1.00;;;;;;4988718;28;20467;-53
2022/06/06 07:19:45;;;;;;;19.10;11.70;;;17.80;1.00;;;;;;5004951;28;20438;-53
2022/06/06 07:22:11;;;;;;;21.17;12.77;;;17.90;1.00;;;;;;4990553;28;20529;-52
2022/06/06 07:24:40;;;;;;;16.07;12.03;;;18.00;1.00;;;;;;4996524;28;20455;-53
2022/06/06 07:27:09;;;;;;;19.20;13.30;;;18.50;1.00;;;;;;5010615;28;21019;-52
2022/06/06 07:29:35;;;;;;;17.17;12.50;;;18.70;1.00;;;;;;5005072;28;20466;-52
2022/06/06 07:32:12;;;;;;;23.03;12.53;;;18.60;1.00;;;;;;4999185;28;20520;-52
2022/06/06 07:34:59;;;;;;;17.97;11.67;;;18.50;1.00;;;;;;4997114;28;20789;-52
2022/06/06 07:37:47;;;;;;;16.33;11.17;;;18.40;1.00;;;;;;4992071;28;20447;-53
2022/06/06 07:40:33;;;;;;;16.10;11.50;;;18.40;1.00;;;;;;5002679;28;20747;-52
2022/06/06 07:43:28;;;;;;;15.93;11.77;;;18.30;1.00;;;;;;4995925;28;20494;-52
2022/06/06 07:46:10;;;;;;;15.40;10.37;;;18.30;1.00;;;;;;4998017;28;20582;-52
2022/06/06 07:48:42;;;;;;;14.93;10.37;;;18.20;1.00;;;;;;4995544;28;20440;-52
2022/06/06 07:51:36;;;;;;;18.17;10.50;;;18.30;1.00;;;;;;4994016;28;20448;-52
2022/06/06 07:54:46;;;;;;;15.50;9.60;;;18.30;1.00;;;;;;4998060;28;20951;-51
2022/06/06 07:57:38;;;;;;;15.60;9.50;;;18.30;1.00;;;;;;4974972;28;20626;-52
2022/06/06 08:00:12;;;;;;;20.33;9.60;;;18.20;1.00;;;;;;4992846;28;20470;-52
2022/06/06 08:02:47;;;;;;;17.50;10.20;;;18.30;1.00;;;;;;4998057;28;20902;-52
2022/06/06 08:05:12;;;;;;;16.40;10.30;;;18.40;1.00;;;;;;4991728;28;20438;-52
2022/06/06 08:07:51;;;;;;;13.13;9.07;;;18.60;1.00;;;;;;4993987;28;20451;-52
2022/06/06 08:10:19;;;;;;;15.43;9.60;;;18.80;1.00;;;;;;4998712;28;20191;-52
2022/06/06 08:13:11;;;;;;;13.57;9.30;;;18.90;1.00;;;;;;4992418;28;20450;-52
2022/06/06 08:15:39;;;;;;;15.27;10.00;;;19.10;1.00;;;;;;4990977;28;20856;-52
2022/06/06 08:18:08;;;;;;;15.53;9.93;;;19.00;1.00;;;;;;4990522;28;20949;-52
2022/06/06 08:21:12;;;;;;;14.57;10.20;;;19.10;1.00;;;;;;4993344;28;20494;-53
2022/06/06 08:23:40;;;;;;;15.17;9.53;;;19.00;1.00;;;;;;4994995;28;20582;-52
2022/06/06 08:26:08;;;;;;;14.00;9.93;;;18.90;1.00;;;;;;4994811;28;20870;-52
2022/06/06 08:28:37;;;;;;;13.40;9.57;;;18.80;1.00;;;;;;5001171;28;20442;-52
2022/06/06 08:31:02;;;;;;;15.50;9.50;;;18.70;1.00;;;;;;4998234;28;20493;-52
2022/06/06 08:33:28;;;;;;;15.63;10.00;;;18.50;1.00;;;;;;4996508;28;20920;-53
2022/06/06 08:35:53;;;;;;;12.97;8.30;;;18.40;1.00;;;;;;4998777;28;20188;-52
2022/06/06 08:38:38;;;;;;;13.43;8.90;;;18.10;1.00;;;;;;4999080;28;20188;-52
2022/06/06 08:41:18;;;;;;;14.97;8.10;;;18.00;1.00;;;;;;4990398;28;20191;-53
2022/06/06 08:44:16;;;;;;;12.80;8.70;;;17.90;1.00;;;;;;4995526;28;20856;-52
2022/06/06 08:46:58;;;;;;;11.67;8.10;;;17.90;1.00;;;;;;4992521;28;20451;-52
2022/06/06 08:53:15;;;;;;;10.67;7.33;;;18.10;1.00;;;;;;4990494;28;20465;-52
2022/06/06 08:56:01;;;;;;;9.00;6.70;;;18.30;1.00;;;;;;5001130;28;20481;-52
2022/06/06 08:58:49;;;;;;;8.87;6.80;;;18.50;1.00;;;;;;4996733;28;20526;-52
2022/06/06 09:01:48;;;;;;;9.37;7.00;;;18.70;1.00;;;;;;4992483;28;20529;-52
2022/06/06 09:04:47;;;;;;;8.67;6.73;;;19.00;1.00;;;;;;4993080;28;20470;-53
2022/06/06 09:07:42;;;;;;;8.90;6.20;;;19.20;1.00;;;;;;4991940;28;20451;-52
2022/06/06 09:10:29;;;;;;;8.70;6.50;;;19.50;1.00;;;;;;4989254;28;20460;-52
2022/06/06 09:13:13;;;;;;;7.70;6.20;;;19.50;1.00;;;;;;5000475;28;20505;-52
2022/06/06 09:16:16;;;;;;;7.63;5.77;;;19.30;1.00;;;;;;4990553;28;20438;-52
2022/06/06 09:19:06;;;;;;;8.30;6.63;;;19.30;1.00;;;;;;4990683;28;20443;-52
2022/06/06 09:22:23;;;;;;;6.60;5.40;;;19.30;1.00;;;;;;4995610;28;20565;-52
2022/06/06 09:25:12;;;;;;;8.90;6.20;;;19.70;99.90;;;;;;4970069;28;20447;-53
2022/06/06 09:27:57;;;;;;;7.90;5.93;;;20.20;99.90;;;;;;5002190;28;20529;-52
2022/06/06 09:30:47;;;;;;;9.60;6.80;;;20.40;99.90;;;;;;4996834;28;20971;-53
2022/06/06 09:33:39;;;;;;;10.03;7.53;;;20.20;99.90;;;;;;4996011;28;20439;-52
2022/06/06 09:36:05;;;;;;;9.57;7.40;;;19.90;99.90;;;;;;4992065;28;20532;-52
2022/06/06 09:38:43;;;;;;;11.47;7.17;;;19.50;99.90;;;;;;4999871;28;20504;-54
2022/06/06 09:41:27;;;;;;;9.03;6.73;;;19.20;99.90;;;;;;5002649;28;20200;-52
2022/06/06 09:44:04;;;;;;;10.23;6.83;;;18.80;99.90;;;;;;4983462;28;20468;-52
2022/06/06 09:46:48;;;;;;;7.70;6.43;;;18.80;99.90;;;;;;4994423;28;21283;-52
2022/06/06 09:49:23;;;;;;;10.27;7.53;;;18.90;99.90;;;;;;4998790;28;20475;-52
2022/06/06 09:52:06;;;;;;;8.07;6.43;;;19.20;99.90;;;;;;4991524;28;21171;-53
2022/06/06 10:01:14;;;;;;;9.10;6.93;;;19.70;99.90;;;;;;4998668;28;20530;-53
2022/06/06 10:04:14;;;;;;;10.73;7.10;;;19.90;99.90;;;;;;4996953;28;20438;-52
2022/06/06 10:07:17;;;;;;;12.20;7.77;;;20.10;99.90;;;;;;4997308;28;20414;-52
2022/06/06 10:10:10;;;;;;;9.20;7.10;;;20.20;99.90;;;;;;4987782;28;20446;-52
2022/06/06 10:13:00;;;;;;;14.33;7.53;;;19.90;99.90;;;;;;4991732;28;20474;-52
2022/06/06 10:15:42;;;;;;;12.13;8.70;;;19.70;99.90;;;;;;4985540;28;20442;-52
2022/06/06 10:18:37;;;;;;;11.53;7.50;;;19.60;99.90;;;;;;4989472;28;20542;-52
2022/06/06 10:21:20;;;;;;;9.63;7.07;;;19.90;99.90;;;;;;4990354;28;20470;-53
2022/06/06 10:24:34;;;;;;;10.80;7.70;;;21.10;99.90;;;;;;4990366;28;20418;-52
2022/06/06 10:27:27;;;;;;;9.10;6.23;;;22.60;99.90;;;;;;4983104;28;20760;-52
2022/06/06 10:30:16;;;;;;;12.43;7.00;;;23.90;99.90;;;;;;4992405;28;20446;-52
2022/06/06 10:32:59;;;;;;;7.97;6.67;;;24.50;99.90;;;;;;5001476;28;20490;-51
2022/06/06 10:35:46;;;;;;;6.30;5.70;;;24.80;99.90;;;;;;4983467;28;20511;-52
2022/06/06 10:38:28;;;;;;;5.90;5.27;;;25.40;99.90;;;;;;4998824;28;20458;-51
2022/06/06 10:41:00;;;;;;;6.47;5.83;;;25.50;99.90;;;;;;5001960;28;21253;-52
2022/06/06 10:43:40;;;;;;;10.67;6.50;;;25.00;99.90;;;;;;5003223;28;20431;-52
2022/06/06 10:46:17;;;;;;;9.13;6.10;;;24.20;99.90;;;;;;5002120;28;20514;-52
2022/06/06 10:49:10;;;;;;;7.47;5.70;;;24.10;99.90;;;;;;4998824;28;20540;-51
2022/06/06 10:51:48;;;;;;;7.33;6.00;;;24.20;99.90;;;;;;4987261;28;20463;-51
2022/06/06 10:54:26;;;;;;;11.00;7.80;;;24.70;99.90;;;;;;4992876;28;21002;-52
2022/06/06 10:57:29;;;;;;;8.30;6.63;;;25.30;99.90;;;;;;4996418;28;20518;-51
2022/06/06 11:00:12;;;;;;;8.60;6.13;;;25.00;99.90;;;;;;4998076;28;20450;-52
2022/06/06 11:02:57;;;;;;;9.07;6.97;;;24.60;99.90;;;;;;4999254;28;20479;-51
2022/06/06 11:05:26;;;;;;;10.00;7.93;;;24.80;99.90;;;;;;5002558;28;20522;-51
2022/06/06 11:08:10;;;;;;;8.50;6.87;;;25.40;99.90;;;;;;4992100;28;20438;-51
2022/06/06 11:10:51;;;;;;;9.20;7.03;;;25.30;99.90;;;;;;4993923;28;20459;-51
2022/06/06 11:13:40;;;;;;;12.20;7.00;;;24.40;99.90;;;;;;4994223;28;20936;-52
2022/06/06 11:16:36;;;;;;;9.80;8.10;;;23.70;99.90;;;;;;4998436;28;20427;-51
2022/06/06 11:19:24;;;;;;;9.03;7.00;;;23.20;99.90;;;;;;4999519;28;20430;-51
2022/06/06 11:22:02;;;;;;;10.37;7.53;;;23.10;99.90;;;;;;5004527;28;20486;-50
2022/06/06 11:24:56;;;;;;;11.27;7.77;;;23.20;99.90;;;;;;4993302;28;20432;-50
2022/06/06 11:27:40;;;;;;;10.20;7.40;;;24.00;99.90;;;;;;4987284;28;20451;-50
2022/06/06 11:30:21;;;;;;;9.27;7.30;;;24.60;99.90;;;;;;4994758;28;20800;-51
2022/06/06 11:32:58;;;;;;;10.77;7.90;;;25.60;99.90;;;;;;4993603;28;20442;-50
2022/06/06 11:35:34;;;;;;;9.77;7.47;;;26.40;99.90;;;;;;4990189;28;20462;-50
2022/06/06 11:38:25;;;;;;;12.17;7.83;;;26.10;99.90;;;;;;4999027;28;20525;-50
2022/06/06 11:41:05;;;;;;;7.73;6.90;;;25.90;99.90;;;;;;4999402;28;20461;-50
2022/06/06 11:44:00;;;;;;;8.83;7.40;;;25.80;99.90;;;;;;4994878;28;20538;-51
2022/06/06 11:46:44;;;;;;;7.43;6.20;;;25.10;99.90;;;;;;4947263;28;20469;-50
2022/06/06 11:49:34;;;;;;;7.70;6.40;;;25.70;99.90;;;;;;5002250;28;20415;-50
2022/06/06 11:52:03;;;;;;;9.43;6.70;;;26.10;99.90;;;;;;4994740;28;20470;-51
2022/06/06 11:55:05;;;;;;;6.23;5.63;;;26.20;99.90;;;;;;4998228;28;20482;-51
2022/06/06 11:57:36;;;;;;;7.90;5.87;;;26.50;99.90;;;;;;4990817;28;20438;-50
2022/06/06 12:00:07;;;;;;;7.77;5.53;;;26.60;99.90;;;;;;4994731;28;20952;-50
2022/06/06 12:02:58;;;;;;;9.40;6.73;;;26.40;99.90;;;;;;4998006;28;20871;-50
2022/06/06 12:05:35;;;;;;;7.60;5.90;;;26.00;99.90;;;;;;4993791;28;20917;-50
2022/06/06 12:08:28;;;;;;;6.43;4.73;;;25.90;99.90;;;;;;4996712;28;20426;-51
2022/06/06 12:11:29;;;;;;;5.60;4.10;;;26.60;99.90;;;;;;4995094;28;20489;-50
2022/06/06 12:14:14;;;;;;;6.40;4.10;;;27.40;99.90;;;;;;4997313;28;20457;-51
2022/06/06 12:16:42;;;;;;;4.70;4.20;;;27.10;99.90;;;;;;4996954;28;20512;-51
2022/06/06 12:19:34;;;;;;;4.20;3.47;;;26.70;99.90;;;;;;4996535;28;20443;-50
2022/06/06 12:22:31;;;;;;;3.57;3.27;;;26.50;99.90;;;;;;4998524;28;20490;-51
2022/06/06 12:25:19;;;;;;;4.33;3.07;;;26.30;99.90;;;;;;5003098;28;20516;-49
2022/06/06 12:28:20;;;;;;;4.67;3.03;;;25.90;99.90;;;;;;4992943;28;20464;-51
2022/06/06 12:31:00;;;;;;;3.03;2.80;;;25.90;99.90;;;;;;4991080;28;20997;-51
2022/06/06 12:34:15;;;;;;;4.70;3.10;;;26.40;99.90;;;;;;5001699;28;20426;-51
2022/06/06 12:37:03;;;;;;;3.50;2.57;;;26.90;99.90;;;;;;4955994;28;20550;-51
2022/06/06 12:39:45;;;;;;;2.63;2.43;;;27.50;99.90;;;;;;4994366;28;20431;-51
2022/06/06 12:42:26;;;;;;;2.63;2.20;;;27.30;99.90;;;;;;4989577;28;21118;-51
2022/06/06 12:45:10;;;;;;;2.57;2.37;;;27.00;99.90;;;;;;4999832;28;20426;-51
2022/06/06 12:47:47;;;;;;;6.40;2.57;;;27.10;99.90;;;;;;4995452;28;20454;-50
2022/06/06 12:50:25;;;;;;;3.20;2.90;;;26.80;99.90;;;;;;4996826;28;20446;-53
2022/06/06 12:53:28;;;;;;;4.50;2.87;;;26.70;99.90;;;;;;4994125;28;21072;-51
2022/06/06 12:58:40;;;;;;;3.50;3.03;;;24.90;99.90;;;;;;4996979;28;20487;-50
2022/06/06 13:01:38;;;;;;;4.20;2.70;;;24.10;99.90;;;;;;4999626;28;20479;-50
2022/06/06 13:04:32;;;;;;;3.30;3.00;;;23.30;99.90;;;;;;4989617;28;20444;-50
2022/06/06 13:07:16;;;;;;;3.60;3.00;;;22.50;99.90;;;;;;5001328;28;20408;-50
2022/06/06 13:09:50;;;;;;;5.37;3.57;;;21.60;99.90;;;;;;4998232;28;20454;-51
2022/06/06 13:12:53;;;;;;;5.57;3.50;;;21.00;99.90;;;;;;4995051;28;20533;-51
2022/06/06 13:15:41;;;;;;;5.00;3.50;;;20.90;99.90;;;;;;5001927;28;20453;-51
2022/06/06 13:18:28;;;;;;;6.13;3.37;;;22.10;99.90;;;;;;4994751;28;20431;-51
2022/06/06 13:21:15;;;;;;;5.10;3.37;;;23.50;99.90;;;;;;4994646;28;20475;-51
2022/06/06 13:23:51;;;;;;;6.90;3.50;;;24.60;99.90;;;;;;5002619;28;20471;-51
2022/06/06 13:26:23;;;;;;;3.53;3.23;;;25.30;99.90;;;;;;4990206;28;20546;-51
2022/06/06 13:28:53;;;;;;;4.50;3.40;;;25.70;99.90;;;;;;4986670;28;20443;-51
2022/06/06 13:31:53;;;;;;;3.37;3.07;;;25.60;99.90;;;;;;4988789;28;20455;-51
2022/06/06 13:34:33;;;;;;;3.10;2.80;;;25.60;99.90;;;;;;5003019;28;20450;-51
2022/06/06 13:37:04;;;;;;;3.57;2.80;;;25.60;99.90;;;;;;4992085;28;20446;-51
2022/06/06 13:40:04;;;;;;;4.10;2.77;;;25.70;99.90;;;;;;5002077;28;20434;-51
2022/06/06 13:42:53;;;;;;;3.90;3.10;;;25.40;99.90;;;;;;4996354;28;20465;-50
2022/06/06 13:45:24;;;;;;;3.63;2.50;;;25.00;99.90;;;;;;4997051;28;20433;-50
2022/06/06 13:48:13;;;;;;;4.37;2.80;;;25.00;99.90;;;;;;5005084;28;20477;-50
2022/06/06 13:50:48;;;;;;;2.60;2.40;;;25.10;99.90;;;;;;4997033;28;20448;-51
2022/06/06 13:53:40;;;;;;;3.00;2.80;;;25.40;99.90;;;;;;4993362;28;20585;-51
2022/06/06 13:56:39;;;;;;;2.90;2.70;;;25.50;99.90;;;;;;4986330;28;20484;-50
2022/06/06 13:59:28;;;;;;;3.77;2.90;;;25.60;99.90;;;;;;4986421;28;20551;-51
2022/06/06 14:02:28;;;;;;;3.60;2.90;;;26.10;99.90;;;;;;4994968;28;20892;-50
2022/06/06 14:05:16;;;;;;;2.80;2.43;;;26.20;99.90;;;;;;4994831;28;20430;-50
2022/06/06 14:07:44;;;;;;;2.30;2.17;;;26.50;99.90;;;;;;4998460;28;20411;-51
2022/06/06 14:10:14;;;;;;;6.17;2.17;;;26.30;99.90;;;;;;4994881;28;20505;-51